Terminal Aerodrome Forecast
Issued by NWS

Home | Current Version | Previous Version | Text Only | Print | Product List | Glossary On
Versions: 1 2 3 4 5 6 7 8 9 10 11 12 13 14 15 16 17 18 19 20 21 22 23 24 25 26 27 28 29 30 31 32 33 34
000
FTUS41 KRNK 192325
TAFBCB
TAF
KBCB 192325Z 2000/2024 30007KT P6SM SCT080 OVC250
     FM201000 00000KT P6SM SCT045 OVC080
     FM201200 00000KT P6SM -SN SCT025 OVC050
     FM201600 23005KT 5SM -SN BR OVC025=

USA.gov is the U.S. government's official web portal to all federal, state and local government web resources and services.